createdAt,value
2023-02-03T00:02:00.328Z,5.80
2023-02-03T00:06:04.103Z,5.82
2023-02-03T00:10:08.822Z,5.89
2023-02-03T00:14:13.561Z,5.87
2023-02-03T00:18:17.096Z,5.67
2023-02-03T00:22:21.896Z,5.76
2023-02-03T00:26:26.240Z,5.78
2023-02-03T00:30:31.654Z,5.78
2023-02-03T00:34:34.986Z,5.78
2023-02-03T00:38:38.674Z,5.81
2023-02-03T00:42:42.108Z,5.78
2023-02-03T00:46:47.036Z,5.66
2023-02-03T00:50:50.757Z,5.75
2023-02-03T00:54:54.391Z,5.74
2023-02-03T00:58:58.059Z,5.73
2023-02-03T01:03:03.976Z,5.75
2023-02-03T01:07:07.562Z,5.63
2023-02-03T01:11:12.980Z,5.70
2023-02-03T01:15:16.639Z,5.67
2023-02-03T01:19:21.896Z,5.67
2023-02-03T01:23:25.350Z,5.69
2023-02-03T01:27:28.873Z,5.69
2023-02-03T01:31:35.544Z,5.63
2023-02-03T01:35:41.929Z,5.63
2023-02-03T01:39:45.409Z,5.64
2023-02-03T01:43:50.525Z,5.63
2023-02-03T01:47:57.531Z,5.66
2023-02-03T01:52:03.375Z,5.50
2023-02-03T01:56:08.318Z,5.63
2023-02-03T02:00:13.365Z,5.64
2023-02-03T02:04:18.046Z,5.62
2023-02-03T02:08:24.163Z,5.57
2023-02-03T02:12:27.727Z,5.66
2023-02-03T02:16:40.419Z,5.58
2023-02-03T02:21:28.629Z,5.60
2023-02-03T02:25:55.592Z,5.57
2023-02-03T02:30:42.196Z,5.64
2023-02-03T02:34:54.405Z,5.58
2023-02-03T02:39:01.213Z,5.58
2023-02-03T02:43:10.271Z,5.61
2023-02-03T02:47:19.412Z,5.64
2023-02-03T02:51:25.246Z,5.65
2023-02-03T02:55:32.345Z,5.63
2023-02-03T02:59:36.116Z,5.67
2023-02-03T03:03:43.206Z,5.72
2023-02-03T03:07:51.198Z,5.65
2023-02-03T03:11:59.701Z,5.73
2023-02-03T03:16:04.284Z,5.74
2023-02-03T03:20:11.956Z,5.66
2023-02-03T03:24:20.796Z,5.72
2023-02-03T03:28:30.376Z,5.78
2023-02-03T03:32:34.253Z,5.72
2023-02-03T03:36:46.131Z,5.71
2023-02-03T03:40:54.836Z,5.69
2023-02-03T03:45:00.871Z,5.69
2023-02-03T03:49:05.696Z,5.70
2023-02-03T03:53:11.695Z,5.61
2023-02-03T03:57:20.407Z,5.70
2023-02-03T04:01:25.061Z,5.67
2023-02-03T04:05:29.269Z,5.72
2023-02-03T04:09:36.787Z,5.69
2023-02-03T04:13:41.651Z,5.60
2023-02-03T04:17:45.145Z,5.64
2023-02-03T04:21:48.795Z,5.65
2023-02-03T04:25:52.683Z,5.66
2023-02-03T04:29:57.522Z,5.66
2023-02-03T04:34:01.475Z,5.63
2023-02-03T04:38:04.792Z,5.66
2023-02-03T04:42:08.531Z,5.66
2023-02-03T04:46:13.527Z,5.65
2023-02-03T04:50:18.214Z,5.70
2023-02-03T04:54:21.610Z,5.66
2023-02-03T04:58:26.667Z,5.64
2023-02-03T05:02:31.628Z,5.65
2023-02-03T05:06:35.445Z,5.64
2023-02-03T05:10:39.134Z,5.62
2023-02-03T05:14:42.803Z,5.58
2023-02-03T05:18:47.780Z,5.56
2023-02-03T05:22:51.192Z,5.54
2023-02-03T05:26:54.630Z,5.56
2023-02-03T05:31:00.308Z,5.55
2023-02-03T05:35:05.297Z,5.58
2023-02-03T05:39:08.870Z,5.57
2023-02-03T05:43:12.171Z,5.56
2023-02-03T05:47:16.497Z,5.55
2023-02-03T05:51:21.314Z,5.57
2023-02-03T05:55:24.980Z,5.57
2023-02-03T05:59:28.257Z,5.54
2023-02-03T06:03:31.835Z,5.55
2023-02-03T06:07:37.061Z,5.57
2023-02-03T06:11:41.717Z,5.55
2023-02-03T06:15:45.434Z,5.57
2023-02-03T06:19:49.297Z,5.38
2023-02-03T06:23:54.811Z,5.52
2023-02-03T06:27:58.138Z,5.54
2023-02-03T06:32:01.538Z,5.53
2023-02-03T06:36:05.172Z,5.55
2023-02-03T06:40:12.347Z,5.63
2023-02-03T06:44:15.308Z,5.63
2023-02-03T06:48:18.328Z,5.65
2023-02-03T06:52:21.561Z,5.63
2023-02-03T06:56:26.903Z,5.53
2023-02-03T07:00:29.985Z,5.59
2023-02-03T07:04:33.100Z,5.56
2023-02-03T07:08:36.887Z,5.61
2023-02-03T07:12:41.060Z,5.55
2023-02-03T07:16:44.436Z,5.56
2023-02-03T07:20:47.272Z,5.61
2023-02-03T07:24:49.995Z,5.61
2023-02-03T07:28:54.612Z,5.49
2023-02-03T07:32:57.469Z,5.65
2023-02-03T07:37:00.437Z,5.65
2023-02-03T07:41:03.239Z,5.69
2023-02-03T07:45:11.308Z,5.73
2023-02-03T07:49:14.923Z,5.69
2023-02-03T07:53:17.935Z,5.70
2023-02-03T07:57:20.835Z,5.73
2023-02-03T08:01:27.256Z,5.75
2023-02-03T08:05:30.585Z,5.70
2023-02-03T08:09:33.363Z,5.77
2023-02-03T08:13:36.221Z,5.77
2023-02-03T08:17:42.088Z,5.77
2023-02-03T08:21:44.909Z,5.77
2023-02-03T08:25:52.159Z,5.84
2023-02-03T08:29:55.108Z,5.99
2023-02-03T08:33:59.772Z,6.05
2023-02-03T08:38:02.532Z,6.05
2023-02-03T08:42:08.711Z,6.12
2023-02-03T08:46:14.132Z,6.10
2023-02-03T08:50:19.809Z,6.12
2023-02-03T08:54:25.498Z,6.24
2023-02-03T08:58:28.385Z,6.28
2023-02-03T09:02:31.240Z,6.41
2023-02-03T09:06:36.197Z,6.25
2023-02-03T09:10:39.298Z,6.46
2023-02-03T09:14:42.381Z,6.46
2023-02-03T09:18:45.870Z,6.42
2023-02-03T09:22:50.736Z,6.38
2023-02-03T09:26:55.272Z,6.37
2023-02-03T09:31:02.043Z,6.38
2023-02-03T09:35:05.012Z,6.36
2023-02-03T09:39:09.398Z,6.25
2023-02-03T09:43:23.911Z,6.30
2023-02-03T09:47:29.650Z,6.25
2023-02-03T09:51:37.060Z,6.38
2023-02-03T09:55:43.699Z,6.34
2023-02-03T09:59:46.769Z,6.31
2023-02-03T10:03:53.244Z,6.29
2023-02-03T10:08:04.259Z,6.23
2023-02-03T10:12:34.579Z,6.33
2023-02-03T10:16:45.738Z,6.33
2023-02-03T10:20:50.369Z,6.39
2023-02-03T10:24:56.786Z,6.15
2023-02-03T10:29:07.957Z,6.45
2023-02-03T10:33:13.230Z,6.57
2023-02-03T10:37:23.628Z,6.62
2023-02-03T10:41:26.934Z,6.42
2023-02-03T10:45:33.297Z,6.41
2023-02-03T10:49:36.095Z,6.52
2023-02-03T10:53:39.434Z,6.47
2023-02-03T10:57:42.332Z,6.51
2023-02-03T11:01:49.326Z,6.46
2023-02-03T11:06:06.141Z,6.51
2023-02-03T11:10:31.129Z,6.48
2023-02-03T11:14:38.178Z,6.58
2023-02-03T11:18:49.965Z,6.56
2023-02-03T11:22:53.260Z,6.55
2023-02-03T11:26:58.101Z,6.54
2023-02-03T11:31:01.543Z,6.56
2023-02-03T11:35:16.046Z,6.46
2023-02-03T11:39:28.368Z,6.57
2023-02-03T11:43:33.211Z,6.58
2023-02-03T11:47:36.459Z,6.30
2023-02-03T11:51:46.290Z,6.66
2023-02-03T11:55:58.247Z,6.56
2023-02-03T12:00:13.448Z,6.47
2023-02-03T12:04:44.396Z,6.54
2023-02-03T12:09:03.439Z,6.53
2023-02-03T12:13:18.285Z,6.43
2023-02-03T12:17:40.274Z,6.43
2023-02-03T12:21:45.974Z,6.59
2023-02-03T12:25:59.583Z,6.55
2023-02-03T12:30:05.795Z,6.60
2023-02-03T12:34:18.768Z,6.62
2023-02-03T12:38:28.657Z,6.55
2023-02-03T12:42:37.243Z,6.63
2023-02-03T12:46:44.949Z,6.62
2023-02-03T12:50:52.119Z,6.60
2023-02-03T12:55:02.605Z,6.63
2023-02-03T12:59:14.170Z,6.63
2023-02-03T13:03:24.751Z,6.72
2023-02-03T13:07:33.644Z,6.71
2023-02-03T13:11:39.887Z,6.73
2023-02-03T13:15:48.649Z,6.80
2023-02-03T13:19:55.083Z,6.82
2023-02-03T13:23:58.701Z,6.84
2023-02-03T13:28:12.464Z,6.88
2023-02-03T13:32:37.397Z,6.82
2023-02-03T13:36:59.249Z,6.82
2023-02-03T13:41:07.561Z,6.81
2023-02-03T13:45:18.769Z,6.82
2023-02-03T13:49:26.250Z,6.85
2023-02-03T13:53:29.771Z,6.84
2023-02-03T13:57:38.298Z,6.91
2023-02-03T14:01:42.153Z,6.88
2023-02-03T14:05:51.006Z,6.89
2023-02-03T14:10:23.466Z,6.94
2023-02-03T14:14:46.819Z,6.95
2023-02-03T14:18:50.101Z,7.01
2023-02-03T14:22:56.511Z,7.03
2023-02-03T14:27:01.044Z,7.03
2023-02-03T14:31:06.276Z,7.13
2023-02-03T14:35:16.980Z,7.10
2023-02-03T14:39:45.602Z,7.06
2023-02-03T14:43:52.253Z,7.14
2023-02-03T14:48:03.610Z,7.19
2023-02-03T14:52:17.309Z,7.12
2023-02-03T14:56:52.085Z,7.13
2023-02-03T15:00:55.847Z,6.86
2023-02-03T15:05:32.136Z,7.16
2023-02-03T15:09:39.736Z,7.09
2023-02-03T15:13:45.992Z,6.97
2023-02-03T15:17:49.905Z,7.08
2023-02-03T15:21:54.915Z,7.07
2023-02-03T15:26:00.146Z,7.11
2023-02-03T15:30:18.699Z,7.09
2023-02-03T15:34:25.095Z,6.95
2023-02-03T15:38:30.962Z,7.06
2023-02-03T15:42:40.790Z,7.12
2023-02-03T15:46:48.357Z,7.00
2023-02-03T15:50:53.383Z,7.03
2023-02-03T15:55:05.652Z,6.99
2023-02-03T15:59:20.858Z,7.01
2023-02-03T16:03:28.774Z,6.94
2023-02-03T16:07:32.187Z,7.00
2023-02-03T16:11:38.114Z,7.03
2023-02-03T16:15:41.222Z,6.92
2023-02-03T16:19:48.792Z,6.99
2023-02-03T16:23:52.664Z,7.00
2023-02-03T16:28:15.765Z,7.05
2023-02-03T16:32:38.032Z,6.99
2023-02-03T16:37:01.959Z,7.01
2023-02-03T16:41:23.607Z,6.93
2023-02-03T16:45:44.456Z,6.98
2023-02-03T16:50:05.718Z,6.92
2023-02-03T16:54:13.223Z,6.85
2023-02-03T16:58:16.911Z,6.87
2023-02-03T17:02:20.033Z,6.83
2023-02-03T17:06:24.597Z,6.81
2023-02-03T17:10:33.245Z,6.84
2023-02-03T17:14:38.147Z,6.82
2023-02-03T17:18:48.637Z,6.87
2023-02-03T17:22:54.708Z,6.82
2023-02-03T17:26:59.476Z,6.88
2023-02-03T17:31:05.913Z,6.91
2023-02-03T17:35:10.544Z,6.89
2023-02-03T17:56:48.215Z,6.94
2023-02-03T18:00:52.865Z,6.56
2023-02-03T18:04:57.523Z,6.95
2023-02-03T18:09:02.674Z,6.74
2023-02-03T18:13:06.763Z,6.96
2023-02-03T18:17:12.503Z,7.01
2023-02-03T18:21:18.179Z,7.09
2023-02-03T18:25:22.314Z,7.06
2023-02-03T18:29:26.282Z,6.98
2023-02-03T18:33:34.680Z,7.10
2023-02-03T18:37:39.144Z,7.14
2023-02-03T18:41:42.436Z,7.13
2023-02-03T18:45:46.478Z,7.12
2023-02-03T18:49:50.865Z,7.23
2023-02-03T18:53:58.382Z,7.15
2023-02-03T18:58:02.281Z,7.09
2023-02-03T19:02:06.184Z,7.18
2023-02-03T19:06:14.735Z,7.14
2023-02-03T19:10:18.553Z,7.19
2023-02-03T19:14:30.102Z,7.22
2023-02-03T19:18:33.202Z,7.28
2023-02-03T19:22:38.460Z,7.18
2023-02-03T19:26:41.927Z,7.25
2023-02-03T19:30:46.015Z,7.22
2023-02-03T19:34:57.740Z,7.25
2023-02-03T19:39:02.740Z,7.29
2023-02-03T19:43:06.304Z,7.36
2023-02-03T19:47:11.169Z,7.32
2023-02-03T19:51:14.642Z,7.36
2023-02-03T19:55:18.951Z,7.30
2023-02-03T19:59:23.097Z,7.36
2023-02-03T20:03:26.548Z,7.42
2023-02-03T20:07:33.750Z,7.42
2023-02-03T20:11:39.258Z,7.48
2023-02-03T20:15:42.205Z,7.47
2023-02-03T20:19:45.167Z,7.28
2023-02-03T20:23:48.561Z,7.50
2023-02-03T20:27:57.155Z,7.45
2023-02-03T20:32:00.841Z,7.47
2023-02-03T20:36:12.780Z,7.44
2023-02-03T20:40:18.249Z,7.49
2023-02-03T20:44:23.356Z,7.19
2023-02-03T20:48:27.177Z,7.43
2023-02-03T20:52:29.950Z,7.36
2023-02-03T20:56:36.219Z,7.43
2023-02-03T21:00:40.853Z,7.43
2023-02-03T21:04:59.011Z,7.38
2023-02-03T21:09:10.156Z,7.38
2023-02-03T21:13:20.674Z,7.32
2023-02-03T21:17:27.675Z,7.32
2023-02-03T21:21:35.617Z,7.16
2023-02-03T21:25:38.794Z,7.39
2023-02-03T21:29:42.933Z,7.38
2023-02-03T21:33:48.008Z,7.40
2023-02-03T21:37:53.112Z,7.46
2023-02-03T21:41:57.481Z,7.43
2023-02-03T21:46:01.778Z,7.52
2023-02-03T21:50:33.336Z,7.49
2023-02-03T21:54:41.950Z,7.46
2023-02-03T21:58:47.509Z,7.54
2023-02-03T22:02:57.635Z,7.54
2023-02-03T22:07:02.454Z,7.61
2023-02-03T22:11:05.715Z,7.59
2023-02-03T22:15:10.298Z,7.58
2023-02-03T22:19:13.109Z,7.32
2023-02-03T22:23:17.699Z,7.57
2023-02-03T22:27:21.053Z,7.49
2023-02-03T22:31:24.146Z,7.65
2023-02-03T22:35:27.541Z,7.68
2023-02-03T22:39:32.270Z,7.60
2023-02-03T22:43:35.360Z,7.53
2023-02-03T22:47:38.635Z,7.56
2023-02-03T22:51:42.004Z,7.59
2023-02-03T22:55:46.712Z,7.64
2023-02-03T22:59:52.478Z,7.55
2023-02-03T23:03:55.957Z,7.51
2023-02-03T23:07:58.796Z,7.51
2023-02-03T23:12:03.841Z,7.54
2023-02-03T23:16:06.980Z,7.49
2023-02-03T23:20:12.315Z,7.60
2023-02-03T23:24:15.812Z,7.60
2023-02-03T23:28:20.618Z,7.59
2023-02-03T23:32:30.909Z,7.60
2023-02-03T23:36:34.487Z,7.55
2023-02-03T23:40:37.568Z,7.57
2023-02-03T23:44:42.600Z,7.54
2023-02-03T23:48:45.516Z,7.61
2023-02-03T23:52:49.008Z,7.66
2023-02-03T23:56:52.832Z,7.64
